createdAt,value
2022-08-05T00:01:36.251Z,32.10
2022-08-05T00:04:17.526Z,32.10
2022-08-05T00:06:44.875Z,32.00
2022-08-05T00:09:14.867Z,32.00
2022-08-05T00:11:48.751Z,31.90
2022-08-05T00:14:27.772Z,31.90
2022-08-05T00:16:57.168Z,31.90
2022-08-05T00:19:32.799Z,31.80
2022-08-05T00:22:01.406Z,31.80
2022-08-05T00:24:31.269Z,31.70
2022-08-05T00:27:04.637Z,31.70
2022-08-05T00:29:38.125Z,31.70
2022-08-05T00:32:12.702Z,31.70
2022-08-05T00:35:05.542Z,31.60
2022-08-05T00:37:51.115Z,31.60
2022-08-05T00:40:27.483Z,31.60
2022-08-05T00:43:01.470Z,31.50
2022-08-05T00:45:38.887Z,31.50
2022-08-05T00:48:12.325Z,31.50
2022-08-05T00:50:41.212Z,31.50
2022-08-05T00:53:45.353Z,31.50
2022-08-05T00:55:57.225Z,31.40
2022-08-05T00:58:27.589Z,31.40
2022-08-05T01:00:56.700Z,31.40
2022-08-05T01:03:30.966Z,31.40
2022-08-05T01:06:00.946Z,31.40
2022-08-05T01:08:40.847Z,31.40
2022-08-05T01:11:22.535Z,31.40
2022-08-05T01:13:59.735Z,31.40
2022-08-05T01:16:49.246Z,31.40
2022-08-05T01:19:36.599Z,31.40
2022-08-05T01:22:37.415Z,31.40
2022-08-05T01:26:03.640Z,31.40
2022-08-05T01:28:39.464Z,31.40
2022-08-05T01:31:13.026Z,31.40
2022-08-05T01:33:53.453Z,31.40
2022-08-05T01:36:28.148Z,31.40
2022-08-05T01:38:56.709Z,31.40
2022-08-05T01:41:34.354Z,31.40
2022-08-05T01:44:03.538Z,31.40
2022-08-05T01:46:42.647Z,31.40
2022-08-05T01:49:24.398Z,31.40
2022-08-05T01:51:58.052Z,31.40
2022-08-05T01:54:45.756Z,31.40
2022-08-05T01:58:13.083Z,31.40
2022-08-05T02:00:11.700Z,31.40
2022-08-05T02:02:54.703Z,31.40
2022-08-05T02:05:28.531Z,31.40
2022-08-05T02:08:01.656Z,31.40
2022-08-05T02:10:36.236Z,31.30
2022-08-05T02:13:53.119Z,31.40
2022-08-05T02:16:34.761Z,31.30
2022-08-05T02:19:27.779Z,31.30
2022-08-05T02:22:05.329Z,31.30
2022-08-05T02:24:38.368Z,31.30
2022-08-05T02:27:10.014Z,31.20
2022-08-05T02:29:58.468Z,31.20
2022-08-05T02:32:31.571Z,31.20
2022-08-05T02:35:14.258Z,31.10
2022-08-05T02:37:47.591Z,31.10
2022-08-05T02:40:19.615Z,31.10
2022-08-05T02:42:52.681Z,31.00
2022-08-05T02:45:24.178Z,31.00
2022-08-05T02:48:06.555Z,31.00
2022-08-05T02:50:43.834Z,31.00
2022-08-05T02:53:16.064Z,31.00
2022-08-05T02:56:00.067Z,30.90
2022-08-05T02:58:31.851Z,30.90
2022-08-05T03:01:03.653Z,30.90
2022-08-05T03:04:03.429Z,30.80
2022-08-05T03:06:55.330Z,30.80
2022-08-05T03:09:15.727Z,30.70
2022-08-05T03:11:57.079Z,30.70
2022-08-05T03:14:25.103Z,30.70
2022-08-05T03:16:53.663Z,30.60
2022-08-05T03:19:33.993Z,30.50
2022-08-05T03:22:05.099Z,30.50
2022-08-05T03:24:47.314Z,30.40
2022-08-05T03:27:18.798Z,30.40
2022-08-05T03:30:08.202Z,30.40
2022-08-05T03:32:33.252Z,30.40
2022-08-05T03:35:00.759Z,30.30
2022-08-05T03:37:28.106Z,30.20
2022-08-05T03:39:58.517Z,30.20
2022-08-05T03:42:28.915Z,30.10
2022-08-05T03:44:57.156Z,30.10
2022-08-05T03:47:24.493Z,30.00
2022-08-05T03:49:52.574Z,29.90
2022-08-05T03:52:36.991Z,29.90
2022-08-05T03:56:04.663Z,29.90
2022-08-05T03:58:29.083Z,29.80
2022-08-05T04:01:00.478Z,29.80
2022-08-05T04:03:29.965Z,29.80
2022-08-05T04:05:59.395Z,29.80
2022-08-05T04:08:30.134Z,29.70
2022-08-05T04:11:04.286Z,29.70
2022-08-05T04:13:51.180Z,29.70
2022-08-05T04:16:24.147Z,29.70
2022-08-05T04:18:54.248Z,29.60
2022-08-05T04:22:09.746Z,29.60
2022-08-05T04:24:19.481Z,29.60
2022-08-05T04:26:51.863Z,29.60
2022-08-05T04:29:20.645Z,29.50
2022-08-05T04:31:49.739Z,29.50
2022-08-05T04:34:33.091Z,29.50
2022-08-05T04:37:02.988Z,29.50
2022-08-05T04:39:32.088Z,29.40
2022-08-05T04:42:00.067Z,29.40
2022-08-05T04:44:30.313Z,29.40
2022-08-05T04:47:08.838Z,29.50
2022-08-05T04:50:01.588Z,29.40
2022-08-05T04:52:27.766Z,29.50
2022-08-05T04:54:57.478Z,29.50
2022-08-05T04:57:28.494Z,29.50
2022-08-05T04:59:58.644Z,29.50
2022-08-05T05:02:36.620Z,29.50
2022-08-05T05:05:16.527Z,29.60
2022-08-05T05:08:01.602Z,29.60
2022-08-05T05:10:30.922Z,29.60
2022-08-05T05:13:01.686Z,29.60
2022-08-05T05:15:57.268Z,29.70
2022-08-05T05:18:30.959Z,29.70
2022-08-05T05:21:03.567Z,29.80
2022-08-05T05:24:02.126Z,29.80
2022-08-05T05:26:28.707Z,29.80
2022-08-05T05:28:59.995Z,29.80
2022-08-05T05:31:35.862Z,29.80
2022-08-05T05:33:59.377Z,29.90
2022-08-05T05:36:29.873Z,30.00
2022-08-05T05:38:57.922Z,30.00
2022-08-05T05:41:25.974Z,30.10
2022-08-05T05:44:35.860Z,30.10
2022-08-05T05:47:04.369Z,30.20
2022-08-05T05:49:40.818Z,30.30
2022-08-05T05:52:08.291Z,30.30
2022-08-05T05:54:50.341Z,30.40
2022-08-05T05:57:20.519Z,30.50
2022-08-05T05:59:48.778Z,30.60
2022-08-05T06:02:16.135Z,30.60
2022-08-05T06:04:44.240Z,30.70
2022-08-05T06:07:22.500Z,30.70
2022-08-05T06:10:10.233Z,30.80
2022-08-05T06:12:42.044Z,30.80
2022-08-05T06:15:12.398Z,30.90
2022-08-05T06:17:53.189Z,30.90
2022-08-05T06:20:21.881Z,30.90
2022-08-05T06:22:50.610Z,31.00
2022-08-05T06:25:25.322Z,31.00
2022-08-05T06:28:11.172Z,31.00
2022-08-05T06:30:46.132Z,31.10
2022-08-05T06:33:13.124Z,31.20
2022-08-05T06:36:08.323Z,31.20
2022-08-05T06:38:36.963Z,31.30
2022-08-05T06:41:07.807Z,31.30
2022-08-05T06:43:58.580Z,31.40
2022-08-05T06:46:23.612Z,31.50
2022-08-05T06:48:59.717Z,31.50
2022-08-05T06:51:29.955Z,31.60
2022-08-05T06:54:03.370Z,31.60
2022-08-05T06:56:34.123Z,31.60
2022-08-05T06:59:09.754Z,31.70
2022-08-05T07:01:41.653Z,31.80
2022-08-05T07:04:09.268Z,31.80
2022-08-05T07:06:37.700Z,31.90
2022-08-05T07:09:05.371Z,32.00
2022-08-05T07:11:37.133Z,32.20
2022-08-05T07:14:30.367Z,32.30
2022-08-05T07:17:58.837Z,32.50
2022-08-05T07:20:31.550Z,32.70
2022-08-05T07:22:38.833Z,32.80
2022-08-05T07:25:22.547Z,32.90
2022-08-05T07:27:58.318Z,33.10
2022-08-05T07:30:33.660Z,33.20
2022-08-05T07:33:05.117Z,33.40
2022-08-05T07:35:56.705Z,33.50
2022-08-05T07:38:32.421Z,33.60
2022-08-05T07:41:16.764Z,33.80
2022-08-05T07:43:56.602Z,34.00
2022-08-05T07:46:26.582Z,34.20
2022-08-05T07:49:02.171Z,34.40
2022-08-05T07:51:48.807Z,34.50
2022-08-05T07:54:31.464Z,34.70
2022-08-05T07:57:18.131Z,34.80
2022-08-05T07:59:49.846Z,34.90
2022-08-05T08:02:18.034Z,35.00
2022-08-05T08:04:47.327Z,35.20
2022-08-05T08:07:14.975Z,35.30
2022-08-05T08:09:52.316Z,35.40
2022-08-05T08:12:35.673Z,35.60
2022-08-05T08:15:15.242Z,35.70
2022-08-05T08:17:46.096Z,35.80
2022-08-05T08:20:42.649Z,36.00
2022-08-05T08:24:00.309Z,36.20
2022-08-05T08:25:59.795Z,36.30
2022-08-05T08:28:36.943Z,36.50
2022-08-05T08:31:07.884Z,36.70
2022-08-05T08:33:38.003Z,36.80
2022-08-05T08:36:38.255Z,37.00
2022-08-05T08:38:58.106Z,37.00
2022-08-05T08:41:52.639Z,37.20
2022-08-05T08:45:22.578Z,37.30
2022-08-05T08:47:47.081Z,37.40
2022-08-05T08:50:13.209Z,37.50
2022-08-05T08:52:55.841Z,37.70
2022-08-05T08:56:03.140Z,37.80
2022-08-05T08:58:13.257Z,37.90
2022-08-05T09:00:42.349Z,38.00
2022-08-05T09:03:11.319Z,38.10
2022-08-05T09:06:08.148Z,38.20
2022-08-05T09:08:26.546Z,38.30
2022-08-05T09:10:54.821Z,38.40
2022-08-05T09:13:23.706Z,38.50
2022-08-05T09:15:53.012Z,38.60
2022-08-05T09:18:22.190Z,38.60
2022-08-05T09:20:51.321Z,38.70
2022-08-05T09:23:21.908Z,38.80
2022-08-05T09:26:02.518Z,38.80
2022-08-05T09:28:34.551Z,38.90
2022-08-05T09:32:39.289Z,38.90
2022-08-05T09:33:56.747Z,38.90
2022-08-05T09:36:27.674Z,38.80
2022-08-05T09:39:18.118Z,38.80
2022-08-05T09:42:00.994Z,38.80
2022-08-05T09:44:41.960Z,38.80
2022-08-05T09:47:20.566Z,38.90
2022-08-05T09:49:55.012Z,38.90
2022-08-05T09:52:36.438Z,39.00
2022-08-05T09:55:57.837Z,39.00
2022-08-05T09:58:00.393Z,39.10
2022-08-05T10:00:30.574Z,39.10
2022-08-05T10:02:59.120Z,39.10
2022-08-05T10:05:32.962Z,39.20
2022-08-05T10:08:35.055Z,39.30
2022-08-05T10:10:54.169Z,39.30
2022-08-05T10:13:47.772Z,39.50
2022-08-05T10:16:30.268Z,39.50
2022-08-05T10:19:00.389Z,39.70
2022-08-05T10:21:27.903Z,39.70
2022-08-05T10:24:07.556Z,39.90
2022-08-05T10:26:49.104Z,39.90
2022-08-05T10:29:24.154Z,40.00
2022-08-05T10:32:52.052Z,39.90
2022-08-05T10:35:01.359Z,39.90
2022-08-05T10:37:40.448Z,39.90
2022-08-05T10:40:46.320Z,39.90
2022-08-05T10:43:23.779Z,39.90
2022-08-05T10:46:11.777Z,39.90
2022-08-05T10:48:58.086Z,39.90
2022-08-05T10:51:57.661Z,39.90
2022-08-05T10:55:03.573Z,39.90
2022-08-05T10:57:33.686Z,39.90
2022-08-05T11:00:13.415Z,40.00
2022-08-05T11:03:25.119Z,40.00
2022-08-05T11:06:14.682Z,40.00
2022-08-05T11:09:24.208Z,40.10
2022-08-05T11:12:27.178Z,40.10
2022-08-05T11:15:20.252Z,40.10
2022-08-05T11:18:05.910Z,40.10
2022-08-05T11:20:46.376Z,40.10
2022-08-05T11:24:05.161Z,40.00
2022-08-05T11:26:43.167Z,39.90
2022-08-05T11:29:40.352Z,39.80
2022-08-05T11:32:29.245Z,39.60
2022-08-05T11:35:00.152Z,39.60
2022-08-05T11:38:30.912Z,39.50
2022-08-05T11:41:34.315Z,39.40
2022-08-05T11:44:05.173Z,39.40
2022-08-05T11:47:09.818Z,39.40
2022-08-05T11:49:33.765Z,39.40
2022-08-05T11:52:02.051Z,39.40
2022-08-05T11:54:40.481Z,39.40
2022-08-05T11:57:24.724Z,39.40
2022-08-05T11:59:53.671Z,39.40
2022-08-05T12:02:33.141Z,39.50
2022-08-05T12:05:07.306Z,39.60
2022-08-05T12:08:10.120Z,39.60
2022-08-05T12:10:45.011Z,39.70
2022-08-05T12:13:47.642Z,39.80
2022-08-05T12:16:19.834Z,39.90
2022-08-05T12:18:55.541Z,39.90
2022-08-05T12:21:30.720Z,40.00
2022-08-05T12:24:07.006Z,40.00
2022-08-05T12:26:44.145Z,40.00
2022-08-05T12:29:40.743Z,40.00
2022-08-05T12:32:09.755Z,40.00
2022-08-05T12:34:38.241Z,40.00
2022-08-05T12:37:21.515Z,39.90
2022-08-05T12:39:51.776Z,39.90
2022-08-05T12:42:21.079Z,39.90
2022-08-05T12:44:48.607Z,39.80
2022-08-05T12:47:36.032Z,39.80
2022-08-05T12:50:19.748Z,39.80
2022-08-05T12:52:59.800Z,39.80
2022-08-05T12:55:43.535Z,39.80
2022-08-05T12:58:49.662Z,39.90
2022-08-05T13:02:02.214Z,39.90
2022-08-05T13:04:02.840Z,39.90
2022-08-05T13:06:41.316Z,40.00
2022-08-05T13:09:28.216Z,40.00
2022-08-05T13:12:13.227Z,40.00
2022-08-05T13:14:46.700Z,40.00
2022-08-05T13:17:41.721Z,39.90
2022-08-05T13:20:19.265Z,39.90
2022-08-05T13:22:52.812Z,39.80
2022-08-05T13:25:22.161Z,39.70
2022-08-05T13:28:10.569Z,39.70
2022-08-05T13:30:39.078Z,39.60
2022-08-05T13:33:06.298Z,39.50
2022-08-05T13:35:43.179Z,39.40
2022-08-05T13:38:28.148Z,39.30
2022-08-05T13:41:00.083Z,39.30
2022-08-05T13:43:44.853Z,39.20
2022-08-05T13:46:16.164Z,39.20
2022-08-05T13:48:58.613Z,39.20
2022-08-05T13:51:36.599Z,39.20
2022-08-05T13:54:11.921Z,39.10
2022-08-05T13:56:50.574Z,39.10
2022-08-05T13:59:27.231Z,39.10
2022-08-05T14:01:58.761Z,39.00
2022-08-05T14:04:51.491Z,39.00
2022-08-05T14:08:00.111Z,39.00
2022-08-05T14:10:18.728Z,38.90
2022-08-05T14:12:48.762Z,38.90
2022-08-05T14:16:08.156Z,38.90
2022-08-05T14:18:05.368Z,38.80
2022-08-05T14:20:32.598Z,38.70
2022-08-05T14:23:00.447Z,38.70
2022-08-05T14:25:30.036Z,38.70
2022-08-05T14:27:58.447Z,38.70
2022-08-05T14:30:26.521Z,38.70
2022-08-05T14:32:55.388Z,38.70
2022-08-05T14:35:23.893Z,38.70
2022-08-05T14:38:04.687Z,38.70
2022-08-05T14:40:31.864Z,38.70
2022-08-05T14:43:01.144Z,38.70
2022-08-05T14:45:29.374Z,38.70
2022-08-05T14:48:05.389Z,38.70
2022-08-05T14:50:36.125Z,38.70
2022-08-05T14:53:08.116Z,38.60
2022-08-05T14:55:39.162Z,38.60
2022-08-05T14:58:10.672Z,38.50
2022-08-05T15:00:58.198Z,38.50
2022-08-05T15:03:33.990Z,38.40
2022-08-05T15:06:14.993Z,38.40
2022-08-05T15:08:59.431Z,38.30
2022-08-05T15:11:52.675Z,38.20
2022-08-05T15:14:34.642Z,38.10
2022-08-05T15:17:47.456Z,38.10
2022-08-05T15:19:59.916Z,38.00
2022-08-05T15:22:28.177Z,37.90
2022-08-05T15:24:58.440Z,37.90
2022-08-05T15:27:25.977Z,37.80
2022-08-05T15:29:56.579Z,37.80
2022-08-05T15:32:28.684Z,37.70
2022-08-05T15:34:57.493Z,37.70
2022-08-05T15:38:31.720Z,37.70
2022-08-05T15:41:00.212Z,37.70
2022-08-05T15:43:10.650Z,37.60
2022-08-05T15:45:46.680Z,37.60
2022-08-05T15:48:15.194Z,37.50
2022-08-05T15:50:43.777Z,37.50
2022-08-05T15:53:15.932Z,37.40
2022-08-05T15:56:02.062Z,37.30
2022-08-05T15:58:37.107Z,37.20
2022-08-05T16:01:16.024Z,37.20
2022-08-05T16:03:50.779Z,37.10
2022-08-05T16:06:21.015Z,37.10
2022-08-05T16:08:50.379Z,37.10
2022-08-05T16:11:18.448Z,37.00
2022-08-05T16:13:48.547Z,37.00
2022-08-05T16:16:25.241Z,37.00
2022-08-05T16:18:54.109Z,36.90
2022-08-05T16:22:00.687Z,36.90
2022-08-05T16:24:36.062Z,36.90
2022-08-05T16:26:58.199Z,36.80
2022-08-05T16:29:27.488Z,36.70
2022-08-05T16:31:58.929Z,36.70
2022-08-05T16:34:27.270Z,36.60
2022-08-05T16:36:55.109Z,36.60
2022-08-05T16:39:23.108Z,36.60
2022-08-05T16:42:14.277Z,36.50
2022-08-05T16:44:54.374Z,36.40
2022-08-05T16:47:36.388Z,36.40
2022-08-05T16:50:13.017Z,36.30
2022-08-05T16:52:45.292Z,36.30
2022-08-05T16:55:13.603Z,36.20
2022-08-05T16:57:53.556Z,36.10
2022-08-05T17:00:34.648Z,36.10
2022-08-05T17:03:15.137Z,36.00
2022-08-05T17:05:50.227Z,35.90
2022-08-05T17:08:35.820Z,35.90
2022-08-05T17:11:08.879Z,35.80
2022-08-05T17:13:41.500Z,35.80
2022-08-05T17:16:30.129Z,35.60
2022-08-05T17:18:56.826Z,35.60
2022-08-05T17:21:24.014Z,35.50
2022-08-05T17:24:34.970Z,35.50
2022-08-05T17:27:06.378Z,35.40
2022-08-05T17:29:40.810Z,35.40
2022-08-05T17:32:11.171Z,35.30
2022-08-05T17:38:33.232Z,35.20
2022-08-05T17:41:00.208Z,35.10
2022-08-05T17:43:46.961Z,35.00
2022-08-05T17:46:14.543Z,35.00
2022-08-05T17:48:43.216Z,34.90
2022-08-05T17:51:11.856Z,34.80
2022-08-05T17:53:39.940Z,34.70
2022-08-05T17:56:09.655Z,34.60
2022-08-05T17:58:37.878Z,34.50
2022-08-05T18:01:09.960Z,34.30
2022-08-05T18:03:59.368Z,34.10
2022-08-05T18:06:30.932Z,33.80
2022-08-05T18:08:58.517Z,33.70
2022-08-05T18:11:33.174Z,33.50
2022-08-05T18:14:13.396Z,33.40
2022-08-05T18:16:51.945Z,33.20
2022-08-05T18:19:22.731Z,33.00
2022-08-05T18:22:09.271Z,32.90
2022-08-05T18:24:40.049Z,32.70
2022-08-05T18:27:12.334Z,32.50
2022-08-05T18:29:43.595Z,32.40
2022-08-05T18:32:17.703Z,32.30
2022-08-05T18:34:45.819Z,32.10
2022-08-05T18:37:33.599Z,31.90
2022-08-05T18:40:33.883Z,31.80
2022-08-05T18:42:47.180Z,31.70
2022-08-05T18:45:14.303Z,31.60
2022-08-05T18:47:43.169Z,31.50
2022-08-05T18:50:45.176Z,31.30
2022-08-05T18:53:19.193Z,31.20
2022-08-05T18:55:51.875Z,31.20
2022-08-05T18:58:18.938Z,31.10
2022-08-05T19:00:54.675Z,31.00
2022-08-05T19:03:53.256Z,30.90
2022-08-05T19:06:18.795Z,30.80
2022-08-05T19:08:49.597Z,30.70
2022-08-05T19:11:27.991Z,30.60
2022-08-05T19:14:00.912Z,30.50
2022-08-05T19:16:36.954Z,30.40
2022-08-05T19:19:21.094Z,30.30
2022-08-05T19:21:48.708Z,30.20
2022-08-05T19:24:18.818Z,30.10
2022-08-05T19:27:04.213Z,30.10
2022-08-05T19:29:35.718Z,30.10
2022-08-05T19:32:11.125Z,30.00
2022-08-05T19:34:39.042Z,30.00
2022-08-05T19:37:06.646Z,29.90
2022-08-05T19:39:45.697Z,29.90
2022-08-05T19:42:35.134Z,29.80
2022-08-05T19:45:06.036Z,29.70
2022-08-05T19:47:37.120Z,29.70
2022-08-05T19:50:06.052Z,29.60
2022-08-05T19:52:35.915Z,29.60
2022-08-05T19:55:06.805Z,29.50
2022-08-05T19:57:47.594Z,29.50
2022-08-05T20:00:24.181Z,29.40
2022-08-05T20:02:51.568Z,29.40
2022-08-05T20:05:24.083Z,29.30
2022-08-05T20:07:56.296Z,29.30
2022-08-05T20:10:26.188Z,29.30
2022-08-05T20:12:55.572Z,29.20
2022-08-05T20:15:48.951Z,29.20
2022-08-05T20:18:33.583Z,29.10
2022-08-05T20:21:00.017Z,29.10
2022-08-05T20:23:40.305Z,29.10
2022-08-05T20:26:16.136Z,29.00
2022-08-05T20:28:49.941Z,29.00
2022-08-05T20:31:21.777Z,29.00
2022-08-05T20:33:51.782Z,28.90
2022-08-05T20:36:22.312Z,28.90
2022-08-05T20:38:54.673Z,28.80
2022-08-05T20:41:27.137Z,28.80
2022-08-05T20:44:17.483Z,28.80
2022-08-05T20:46:47.801Z,28.70
2022-08-05T20:49:15.410Z,28.70
2022-08-05T20:51:53.674Z,28.70
2022-08-05T20:54:22.609Z,28.60
2022-08-05T20:56:53.209Z,28.50
2022-08-05T20:59:26.889Z,28.50
2022-08-05T21:01:57.228Z,28.40
2022-08-05T21:04:26.878Z,28.40
2022-08-05T21:06:55.751Z,28.30
2022-08-05T21:09:24.066Z,28.30
2022-08-05T21:12:09.120Z,28.20
2022-08-05T21:14:38.261Z,28.20
2022-08-05T21:17:05.882Z,28.10
2022-08-05T21:19:47.528Z,28.10
2022-08-05T21:22:18.442Z,28.10
2022-08-05T21:24:51.948Z,28.00
2022-08-05T21:27:25.057Z,28.00
2022-08-05T21:29:56.438Z,28.00
2022-08-05T21:32:28.940Z,27.90
2022-08-05T21:35:09.013Z,27.90
2022-08-05T21:37:47.320Z,27.90
2022-08-05T21:40:20.760Z,27.90
2022-08-05T21:42:47.849Z,27.80
2022-08-05T21:45:51.572Z,27.80
2022-08-05T21:48:13.587Z,27.70
2022-08-05T21:50:41.831Z,27.70
2022-08-05T21:53:20.230Z,27.70
2022-08-05T21:56:05.688Z,27.60
2022-08-05T21:58:34.398Z,27.50
2022-08-05T22:01:07.287Z,27.40
2022-08-05T22:03:51.835Z,27.30
2022-08-05T22:06:34.838Z,27.30
2022-08-05T22:09:14.557Z,27.20
2022-08-05T22:11:43.582Z,27.10
2022-08-05T22:14:34.343Z,27.10
2022-08-05T22:17:06.936Z,27.00
2022-08-05T22:20:01.266Z,26.90
2022-08-05T22:22:28.271Z,26.90
2022-08-05T22:25:18.237Z,26.90
2022-08-05T22:28:09.000Z,26.90
2022-08-05T22:30:55.518Z,26.90
2022-08-05T22:33:58.606Z,26.90
2022-08-05T22:36:14.529Z,27.00
2022-08-05T22:38:48.648Z,27.00
2022-08-05T22:42:04.946Z,27.00
2022-08-05T22:44:08.912Z,26.90
2022-08-05T22:46:39.923Z,26.90
2022-08-05T22:49:23.530Z,26.80
2022-08-05T22:52:05.772Z,26.80
2022-08-05T22:54:36.564Z,26.70
2022-08-05T22:57:06.183Z,26.70
2022-08-05T22:59:42.978Z,26.70
2022-08-05T23:02:29.457Z,26.60
2022-08-05T23:05:01.593Z,26.60
2022-08-05T23:07:44.848Z,26.50
2022-08-05T23:10:13.627Z,26.50
2022-08-05T23:12:40.818Z,26.50
2022-08-05T23:15:11.929Z,26.50
2022-08-05T23:18:00.610Z,26.40
2022-08-05T23:20:26.705Z,26.30
2022-08-05T23:22:55.879Z,26.30
2022-08-05T23:25:52.817Z,26.20
2022-08-05T23:28:15.685Z,26.10
2022-08-05T23:30:52.840Z,26.00
2022-08-05T23:34:02.618Z,25.90
2022-08-05T23:36:10.778Z,25.80
2022-08-05T23:38:40.968Z,25.70
2022-08-05T23:41:08.824Z,25.70
2022-08-05T23:43:37.208Z,25.70
2022-08-05T23:46:23.865Z,25.70
2022-08-05T23:49:01.051Z,25.80
2022-08-05T23:51:52.733Z,25.80
2022-08-05T23:54:30.006Z,25.80
2022-08-05T23:57:03.890Z,25.90
